If you wish to contribute or participate in the discussions about articles you are invited to join SKYbrary as a registered user

 Actions

Alpnach Air Base

From SKYbrary Wiki

LSMA
Airport
ICAO: LSMA
Summary
Name Alpnach Air Base
Region Europe
Territory Switzerland CH.gif
Location Alpnach, Obwalden
Serving Alpnach
Elevation 445.008 m <br />1,460 ft <br />1,460 ft445.008 m <br />
Type medium airport
Coordinates 46° 56' 38.00" N, 8° 17' 3.01" E
Runways
Designator Length Width Surface ROPS
1/19 1500 m4,921.26 ft <br /> 40 m131.234 ft <br /> ASP /


METAR
Observation LSMA 181620Z AUTO 09008KT 060V130 9999NDV RA BKN028 BKN032 OVC037 07/03 Q1019 RMK
Station ALPNACH
Date/Time 18 April 2021 16:20:00
Wind direction 90°
Wind speed 08 kts
Lowest cloud amount broken clouds
Temperature 7°C
Dew point 3°C
Humidity 75%
QNH 1019 hPa
Weather condition n/a

Military airbase outside Alpnach, Switzerland.

Climatology

Humid continental climate (Köppen climate classification Dfb)

Maps

Terrain

Loading map...

Airport Layout

Loading map...


Accidents & Serious Incidents at or in vicinity of LSMA

None on SKYbrary